Time;durP1;ratioP1;P1;durP2;ratioP2;P2;SDS_P1;SDS_P2;PMS_P1;PMS_P2;Temp;Humidity;BMP_temperature;BMP_pressure;BME280_temperature;BME280_humidity;BME280_pressure;Samples;Min_cycle;Max_cycle;Signal;HPM_P1;HPM_P2
2022/07/01 00:01:47;;;;;;;32.55;18.52;;;17.10;79.50;;;;;;5114988;28;20025;-65
2022/07/01 00:04:13;;;;;;;33.42;17.48;;;17.10;79.50;;;;;;5114937;28;20039;-65
2022/07/01 00:06:39;;;;;;;32.88;17.25;;;17.10;79.20;;;;;;5114874;28;20039;-65
2022/07/01 00:09:04;;;;;;;29.75;16.45;;;17.10;79.40;;;;;;5097156;28;20024;-65
2022/07/01 00:11:31;;;;;;;32.20;16.15;;;17.10;79.60;;;;;;5114824;28;20063;-65
2022/07/01 00:13:57;;;;;;;32.88;17.55;;;17.10;79.60;;;;;;5114655;28;20028;-65
2022/07/01 00:16:22;;;;;;;30.85;16.45;;;17.10;79.70;;;;;;5096757;28;20055;-65
2022/07/01 00:18:48;;;;;;;28.02;15.52;;;17.00;79.90;;;;;;5114671;28;20054;-65
2022/07/01 00:21:14;;;;;;;29.70;16.55;;;16.90;80.30;;;;;;5113626;28;20024;-65
2022/07/01 00:23:40;;;;;;;31.90;17.08;;;16.90;80.30;;;;;;5114581;28;20039;-65
2022/07/01 00:26:06;;;;;;;28.38;15.52;;;16.90;80.10;;;;;;5114534;28;20032;-65
2022/07/01 00:28:32;;;;;;;28.08;16.10;;;16.80;80.00;;;;;;5114411;28;20034;-65
2022/07/01 00:30:57;;;;;;;25.83;14.25;;;16.80;79.80;;;;;;5114294;28;20059;-65
2022/07/01 00:33:23;;;;;;;25.85;14.80;;;16.70;79.60;;;;;;5114321;28;20035;-65
2022/07/01 00:35:48;;;;;;;26.95;14.23;;;16.70;79.70;;;;;;5096490;28;20028;-65
2022/07/01 00:38:14;;;;;;;26.65;15.32;;;16.70;80.10;;;;;;5096400;28;20084;-65
2022/07/01 00:40:39;;;;;;;27.25;14.38;;;16.60;80.10;;;;;;5114378;28;20502;-65
2022/07/01 00:43:05;;;;;;;25.30;13.98;;;16.60;80.20;;;;;;5096284;28;20043;-65
2022/07/01 00:45:31;;;;;;;27.05;14.02;;;16.70;80.30;;;;;;5114282;28;20058;-65
2022/07/01 00:47:57;;;;;;;24.15;13.82;;;16.70;80.10;;;;;;5114167;28;20031;-65
2022/07/01 00:50:23;;;;;;;26.45;13.90;;;16.70;80.10;;;;;;5114093;28;20044;-65
2022/07/01 00:52:48;;;;;;;24.05;13.77;;;16.60;80.30;;;;;;5113939;28;20483;-65
2022/07/01 00:55:14;;;;;;;24.33;13.70;;;16.50;81.20;;;;;;5096304;28;20020;-65
2022/07/01 00:57:42;;;;;;;22.85;13.20;;;16.60;80.20;;;;;;5113944;28;20021;-65
2022/07/01 01:00:13;;;;;;;24.88;13.40;;;16.50;80.20;;;;;;5113900;28;20053;-65
2022/07/01 01:02:39;;;;;;;21.27;11.80;;;16.50;80.20;;;;;;5113937;28;20032;-65
2022/07/01 01:05:09;;;;;;;23.88;12.88;;;16.60;80.10;;;;;;5095910;28;20032;-65
2022/07/01 01:07:34;;;;;;;20.48;11.77;;;16.60;79.80;;;;;;5113791;28;20028;-65
2022/07/01 01:10:01;;;;;;;20.13;11.98;;;16.60;79.70;;;;;;5113721;28;20031;-65
2022/07/01 01:12:28;;;;;;;19.05;11.30;;;16.60;79.80;;;;;;5113657;28;20029;-65
2022/07/01 01:14:55;;;;;;;20.52;11.25;;;16.50;80.00;;;;;;5113689;28;20018;-65
2022/07/01 01:17:22;;;;;;;20.42;12.02;;;16.50;80.30;;;;;;5095776;28;20024;-65
2022/07/01 01:19:48;;;;;;;19.30;10.68;;;16.30;80.70;;;;;;5113565;28;20043;-65
2022/07/01 01:22:16;;;;;;;19.27;11.20;;;16.30;80.80;;;;;;5113555;28;20024;-65
2022/07/01 01:24:42;;;;;;;20.30;10.80;;;16.20;81.20;;;;;;5113547;28;20427;-65
2022/07/01 01:27:08;;;;;;;18.25;10.85;;;16.20;81.30;;;;;;5095612;28;20054;-65
2022/07/01 01:29:36;;;;;;;20.92;11.15;;;16.20;81.40;;;;;;5095460;28;20471;-68
2022/07/01 01:32:03;;;;;;;21.60;12.05;;;16.20;81.40;;;;;;5112957;28;20103;-65
2022/07/01 01:34:29;;;;;;;21.05;11.30;;;16.10;81.60;;;;;;5113387;28;20505;-65
2022/07/01 01:36:55;;;;;;;21.20;12.35;;;16.10;81.70;;;;;;5113413;28;20028;-65
2022/07/01 01:39:21;;;;;;;22.58;11.98;;;16.10;81.70;;;;;;5113394;28;20058;-65
2022/07/01 01:41:47;;;;;;;23.48;13.18;;;16.10;81.60;;;;;;5113362;28;20024;-65
2022/07/01 01:44:13;;;;;;;22.92;12.02;;;16.10;81.70;;;;;;5113334;28;20070;-65
2022/07/01 01:46:40;;;;;;;22.77;12.48;;;16.10;81.80;;;;;;5113304;28;20028;-65
2022/07/01 01:49:06;;;;;;;21.85;11.68;;;16.20;81.70;;;;;;5113355;28;20028;-65
2022/07/01 01:51:32;;;;;;;22.02;12.57;;;16.20;81.60;;;;;;5113310;28;20048;-65
2022/07/01 01:53:58;;;;;;;24.23;12.88;;;16.10;82.40;;;;;;5113190;28;20065;-65
2022/07/01 01:56:25;;;;;;;27.55;13.30;;;16.10;81.80;;;;;;5113204;28;20028;-65
2022/07/01 01:58:50;;;;;;;22.25;13.77;;;16.10;81.70;;;;;;5113213;28;20032;-65
2022/07/01 02:01:17;;;;;;;25.23;13.23;;;16.10;81.60;;;;;;5112938;28;20474;-65
2022/07/01 02:03:46;;;;;;;22.35;13.30;;;16.20;81.30;;;;;;5113157;28;20028;-65
2022/07/01 02:06:13;;;;;;;25.00;13.00;;;16.10;81.40;;;;;;5113139;28;20052;-65
2022/07/01 02:08:39;;;;;;;24.42;14.00;;;16.10;81.30;;;;;;5113218;28;20020;-65
2022/07/01 02:11:06;;;;;;;24.40;13.23;;;16.10;81.30;;;;;;5095204;28;20028;-65
2022/07/01 02:13:32;;;;;;;24.63;13.32;;;16.10;81.60;;;;;;5113044;28;20079;-65
2022/07/01 02:15:58;;;;;;;25.02;13.48;;;16.00;81.60;;;;;;5113088;28;20028;-65
2022/07/01 02:18:23;;;;;;;26.48;14.05;;;16.00;81.50;;;;;;5095020;28;20032;-65
2022/07/01 02:20:49;;;;;;;22.67;12.48;;;16.10;81.50;;;;;;5112992;28;20032;-65
2022/07/01 02:23:15;;;;;;;26.85;13.35;;;16.10;81.40;;;;;;5112949;28;20040;-65
2022/07/01 02:25:41;;;;;;;23.77;12.75;;;16.10;81.40;;;;;;5112941;28;20024;-65
2022/07/01 02:28:07;;;;;;;23.38;12.90;;;16.10;81.40;;;;;;5112840;28;20092;-65
2022/07/01 02:30:36;;;;;;;20.67;11.68;;;16.10;81.50;;;;;;5112721;28;20072;-65
2022/07/01 02:33:02;;;;;;;25.02;13.23;;;16.00;81.70;;;;;;5112939;28;20052;-65
2022/07/01 02:35:28;;;;;;;23.02;12.63;;;16.00;81.90;;;;;;5112863;28;20028;-65
2022/07/01 02:37:54;;;;;;;22.20;12.00;;;16.00;81.80;;;;;;5112859;28;20051;-65
2022/07/01 02:40:19;;;;;;;21.05;11.63;;;16.00;81.90;;;;;;5112822;28;20048;-65
2022/07/01 02:42:46;;;;;;;18.38;10.75;;;15.90;82.00;;;;;;5112826;28;20035;-65
2022/07/01 02:45:12;;;;;;;20.38;11.27;;;15.90;81.80;;;;;;5116143;28;20096;-65
2022/07/01 02:47:39;;;;;;;21.30;10.27;;;15.90;82.00;;;;;;5116427;28;20043;-65
2022/07/01 02:50:07;;;;;;;18.30;10.73;;;15.90;81.80;;;;;;5116378;28;20035;-65
2022/07/01 02:52:34;;;;;;;17.90;9.73;;;15.90;81.60;;;;;;5116356;28;20036;-65
2022/07/01 02:55:04;;;;;;;19.67;10.23;;;15.90;81.40;;;;;;5116302;28;20021;-65
2022/07/01 02:57:30;;;;;;;17.38;10.05;;;15.90;81.60;;;;;;5116295;28;20017;-65
2022/07/01 02:59:56;;;;;;;18.20;10.10;;;15.90;81.80;;;;;;5116198;28;20024;-65
2022/07/01 03:02:24;;;;;;;18.85;10.30;;;15.80;81.70;;;;;;5116293;28;20494;-65
2022/07/01 03:04:52;;;;;;;19.27;10.15;;;15.90;81.80;;;;;;5116130;28;20035;-65
2022/07/01 03:07:18;;;;;;;17.52;10.00;;;15.90;81.90;;;;;;5116044;28;20035;-65
2022/07/01 03:09:44;;;;;;;16.48;9.50;;;15.90;82.00;;;;;;5115997;28;20028;-65
2022/07/01 03:12:27;;;;;;;18.38;9.75;;;15.90;82.10;;;;;;5115870;28;20119;-65
2022/07/01 03:14:57;;;;;;;18.25;10.48;;;15.90;82.10;;;;;;5115954;28;20013;-65
2022/07/01 03:17:24;;;;;;;18.73;10.68;;;15.90;82.40;;;;;;5097888;28;20039;-65
2022/07/01 03:19:54;;;;;;;19.70;10.40;;;15.80;82.50;;;;;;5115831;28;20020;-65
2022/07/01 03:22:24;;;;;;;18.63;10.55;;;15.70;82.50;;;;;;5115795;28;20035;-65
2022/07/01 03:24:51;;;;;;;18.48;10.85;;;15.80;82.50;;;;;;5115760;28;20035;-65
2022/07/01 03:27:17;;;;;;;19.65;10.63;;;15.70;82.10;;;;;;5115686;28;20024;-65
2022/07/01 03:29:43;;;;;;;20.05;10.18;;;15.60;82.20;;;;;;5115312;28;20548;-65
2022/07/01 03:32:10;;;;;;;20.98;10.85;;;15.70;82.20;;;;;;5115597;28;20079;-65
2022/07/01 03:34:40;;;;;;;18.63;10.80;;;15.70;82.30;;;;;;5115518;28;20024;-65
2022/07/01 03:37:06;;;;;;;19.83;11.13;;;15.70;83.10;;;;;;5115533;28;20020;-65
2022/07/01 03:39:33;;;;;;;20.92;10.95;;;15.70;82.60;;;;;;5115458;28;20024;-65
2022/07/01 03:41:59;;;;;;;21.80;11.05;;;15.70;83.00;;;;;;5115352;28;20048;-65
2022/07/01 03:44:24;;;;;;;20.95;10.57;;;15.60;83.20;;;;;;5115365;28;20032;-65
2022/07/01 03:46:50;;;;;;;19.20;11.00;;;15.60;83.00;;;;;;5115331;28;20032;-65
2022/07/01 03:49:15;;;;;;;19.05;10.38;;;15.70;82.40;;;;;;5115283;28;20028;-65
2022/07/01 03:51:41;;;;;;;22.67;10.75;;;15.60;82.50;;;;;;5115172;28;20039;-65
2022/07/01 03:56:51;;;;;;;20.05;11.07;;;15.70;82.50;;;;;;5115382;28;20039;-65
2022/07/01 03:59:17;;;;;;;22.85;12.05;;;15.80;82.40;;;;;;5115042;28;20032;-65
2022/07/01 04:01:42;;;;;;;22.42;10.85;;;15.70;82.70;;;;;;5097139;28;20028;-65
2022/07/01 04:04:08;;;;;;;20.70;10.98;;;15.80;82.60;;;;;;5114932;28;20036;-65
2022/07/01 04:06:34;;;;;;;20.95;11.18;;;15.80;82.80;;;;;;5114922;28;20032;-65
2022/07/01 04:09:00;;;;;;;22.83;11.85;;;15.70;82.90;;;;;;5114858;28;20054;-65
2022/07/01 04:11:26;;;;;;;20.17;10.88;;;15.70;82.70;;;;;;5114841;28;20028;-65
2022/07/01 04:13:52;;;;;;;20.65;11.05;;;15.80;83.50;;;;;;5114730;28;20039;-65
2022/07/01 04:16:18;;;;;;;20.40;11.93;;;15.80;82.60;;;;;;5114722;28;20044;-65
2022/07/01 04:18:44;;;;;;;22.00;10.82;;;15.70;82.90;;;;;;5114645;28;20024;-66
2022/07/01 04:23:55;;;;;;;18.38;10.55;;;15.60;83.00;;;;;;5114644;28;20407;-65
2022/07/01 04:26:20;;;;;;;21.33;10.23;;;15.50;83.30;;;;;;5114543;28;20024;-65
2022/07/01 04:28:46;;;;;;;23.95;10.77;;;15.60;83.20;;;;;;5096590;28;20038;-65
2022/07/01 04:31:11;;;;;;;17.80;10.23;;;15.50;83.30;;;;;;5096401;28;20060;-65
2022/07/01 04:33:37;;;;;;;18.27;9.60;;;15.50;83.30;;;;;;5114307;28;20095;-65
2022/07/01 04:36:03;;;;;;;19.98;10.75;;;15.50;83.30;;;;;;5114377;28;20020;-65
2022/07/01 04:38:29;;;;;;;21.25;11.60;;;15.40;83.50;;;;;;5114303;28;20019;-65
2022/07/01 04:43:38;;;;;;;21.25;11.77;;;15.50;83.50;;;;;;5114374;28;20057;-65
2022/07/01 04:46:04;;;;;;;21.15;11.35;;;15.50;83.30;;;;;;5096384;28;20028;-65
2022/07/01 04:48:30;;;;;;;23.33;11.32;;;15.50;83.50;;;;;;5114102;28;20032;-65
2022/07/01 04:50:56;;;;;;;21.58;11.57;;;15.60;83.30;;;;;;5114081;28;20096;-65
2022/07/01 04:53:21;;;;;;;26.38;12.48;;;15.60;83.40;;;;;;5095823;28;20032;-64
2022/07/01 04:55:47;;;;;;;21.95;11.65;;;15.60;83.50;;;;;;5114007;28;20028;-64
2022/07/01 04:58:13;;;;;;;21.52;11.30;;;15.70;83.30;;;;;;5095904;28;20119;-63
2022/07/01 05:00:40;;;;;;;25.15;12.57;;;15.70;83.40;;;;;;5113915;28;20020;-63
2022/07/01 05:03:06;;;;;;;20.15;11.52;;;15.80;84.10;;;;;;5096335;28;20030;-63
2022/07/01 05:05:32;;;;;;;19.83;11.00;;;15.80;83.30;;;;;;5113650;28;20027;-64
2022/07/01 05:07:57;;;;;;;23.73;11.18;;;15.70;83.20;;;;;;5113309;28;20025;-64
2022/07/01 05:10:23;;;;;;;25.92;11.48;;;15.70;83.40;;;;;;5113768;28;20479;-64
2022/07/01 05:12:49;;;;;;;20.20;10.93;;;15.80;83.50;;;;;;5113653;28;20084;-64
2022/07/01 05:15:14;;;;;;;19.70;10.93;;;15.80;83.60;;;;;;5095605;28;20035;-64
2022/07/01 05:23:08;;;;;;;23.20;11.13;;;15.80;83.90;;;;;;5113725;28;20117;-63
2022/07/01 05:25:34;;;;;;;20.55;10.70;;;15.80;83.50;;;;;;5113585;28;20060;-64
2022/07/01 05:27:59;;;;;;;20.85;10.80;;;15.80;83.30;;;;;;5113579;28;20028;-63
2022/07/01 05:30:25;;;;;;;21.40;11.20;;;15.80;83.00;;;;;;5113305;28;20075;-63
2022/07/01 05:32:51;;;;;;;20.40;11.23;;;15.80;82.90;;;;;;5113479;28;20106;-63
2022/07/01 05:35:16;;;;;;;21.25;11.38;;;15.80;82.80;;;;;;5113434;28;20034;-64
2022/07/01 05:37:42;;;;;;;22.65;11.35;;;15.90;82.60;;;;;;5113423;28;20079;-63
2022/07/01 05:40:08;;;;;;;22.63;12.40;;;15.90;82.60;;;;;;5113340;28;20048;-64
2022/07/01 05:42:34;;;;;;;22.88;12.95;;;16.00;82.50;;;;;;5095327;28;20032;-71
2022/07/01 05:44:59;;;;;;;25.02;11.98;;;15.90;82.50;;;;;;5113332;28;20038;-71
2022/07/01 05:47:25;;;;;;;27.65;13.25;;;16.00;82.70;;;;;;5113308;28;20021;-71
2022/07/01 05:49:50;;;;;;;27.38;12.75;;;16.00;82.60;;;;;;5113398;28;20024;-71
2022/07/01 05:52:16;;;;;;;25.65;13.20;;;16.00;82.40;;;;;;5113211;28;20066;-71
2022/07/01 05:54:42;;;;;;;25.55;13.68;;;16.00;82.60;;;;;;5113386;28;20024;-72
2022/07/01 05:57:07;;;;;;;22.98;12.82;;;16.00;82.60;;;;;;5113196;28;20028;-72
2022/07/01 05:59:33;;;;;;;22.15;12.75;;;16.00;82.20;;;;;;5113350;28;20028;-72
2022/07/01 06:01:59;;;;;;;24.63;12.90;;;16.00;82.20;;;;;;5113208;28;20024;-73
2022/07/01 06:04:24;;;;;;;24.27;12.75;;;15.90;82.30;;;;;;5113160;28;20032;-72
2022/07/01 06:06:50;;;;;;;24.45;13.40;;;16.00;82.60;;;;;;5113174;28;20031;-72
2022/07/01 06:09:15;;;;;;;23.10;13.20;;;16.00;82.60;;;;;;5113095;28;20028;-72
2022/07/01 06:11:41;;;;;;;22.75;13.02;;;16.00;82.60;;;;;;5113092;28;20020;-72
2022/07/01 06:14:06;;;;;;;21.92;12.85;;;16.10;82.50;;;;;;5113153;28;20501;-72
2022/07/01 06:16:32;;;;;;;22.33;12.65;;;16.10;82.50;;;;;;5113052;28;20054;-72
2022/07/01 06:18:58;;;;;;;20.10;11.15;;;16.20;82.70;;;;;;5096919;28;20035;-73
2022/07/01 06:21:24;;;;;;;19.58;11.90;;;16.20;82.60;;;;;;5117116;28;20054;-72
2022/07/01 06:23:50;;;;;;;18.40;10.45;;;16.20;82.20;;;;;;5116918;28;20036;-72
2022/07/01 06:26:15;;;;;;;16.45;9.68;;;16.20;81.50;;;;;;5116835;28;20027;-72
2022/07/01 06:28:41;;;;;;;22.15;9.88;;;16.20;81.50;;;;;;5116770;28;20091;-72
2022/07/01 06:31:07;;;;;;;18.27;10.93;;;16.10;81.80;;;;;;5116663;28;20081;-72
2022/07/01 06:33:33;;;;;;;18.30;9.75;;;16.10;81.80;;;;;;5116700;28;20047;-72
2022/07/01 06:35:59;;;;;;;20.88;10.95;;;16.00;81.90;;;;;;5116712;28;20020;-71
2022/07/01 06:38:25;;;;;;;17.42;9.88;;;16.00;82.00;;;;;;5116631;28;20075;-71
2022/07/01 06:43:35;;;;;;;21.27;10.20;;;16.10;82.20;;;;;;5116727;28;20047;-71
2022/07/01 06:46:01;;;;;;;17.98;11.10;;;16.20;82.10;;;;;;5116529;28;20028;-71
2022/07/01 06:48:27;;;;;;;15.20;9.68;;;16.30;82.40;;;;;;5116435;28;20189;-71
2022/07/01 06:50:53;;;;;;;19.23;11.70;;;16.30;81.80;;;;;;5116431;28;20020;-72
2022/07/01 06:53:18;;;;;;;17.08;10.55;;;16.30;82.50;;;;;;5116316;28;20107;-72
2022/07/01 06:55:44;;;;;;;18.55;11.23;;;16.40;81.00;;;;;;5116318;28;20099;-73
2022/07/01 06:58:10;;;;;;;16.98;10.07;;;16.40;81.00;;;;;;5116245;28;20087;-72
2022/07/01 07:00:36;;;;;;;15.25;9.85;;;16.40;79.70;;;;;;5116193;28;20035;-73
2022/07/01 07:03:02;;;;;;;20.67;10.45;;;16.50;79.70;;;;;;5098212;28;20020;-73
2022/07/01 07:05:30;;;;;;;14.45;10.43;;;16.50;80.30;;;;;;5116122;28;20042;-73
2022/07/01 07:07:55;;;;;;;15.60;9.52;;;16.50;78.80;;;;;;5116088;28;20020;-73
2022/07/01 07:10:21;;;;;;;14.75;9.27;;;16.50;79.50;;;;;;5098243;28;20032;-73
2022/07/01 07:12:47;;;;;;;13.82;8.90;;;16.50;79.40;;;;;;5115871;28;20068;-73
2022/07/01 07:15:12;;;;;;;15.20;9.15;;;16.60;79.00;;;;;;5115955;28;20029;-73
2022/07/01 07:17:38;;;;;;;14.80;8.60;;;16.70;79.00;;;;;;5116050;28;20089;-69
2022/07/01 07:20:04;;;;;;;15.35;8.27;;;16.70;78.50;;;;;;5115847;28;20050;-73
2022/07/01 07:22:30;;;;;;;14.55;7.95;;;16.80;77.50;;;;;;5115720;28;20518;-72
2022/07/01 07:24:55;;;;;;;11.70;7.68;;;16.70;77.80;;;;;;5115762;28;20036;-72
2022/07/01 07:27:21;;;;;;;12.18;7.43;;;16.80;77.20;;;;;;5115821;28;20035;-72
2022/07/01 07:29:46;;;;;;;13.85;8.25;;;16.80;77.50;;;;;;5114889;28;20032;-72
2022/07/01 07:32:12;;;;;;;14.50;8.63;;;16.80;76.90;;;;;;5115462;28;20119;-72
2022/07/01 07:34:38;;;;;;;15.20;7.63;;;16.80;77.50;;;;;;5115594;28;20059;-72
2022/07/01 07:37:03;;;;;;;12.88;7.05;;;16.80;76.90;;;;;;5115541;28;20111;-72
2022/07/01 07:39:29;;;;;;;13.85;7.70;;;16.90;76.80;;;;;;5115491;28;20073;-73
2022/07/01 07:41:55;;;;;;;14.60;7.80;;;17.00;76.40;;;;;;5115490;28;20096;-72
2022/07/01 07:44:20;;;;;;;13.68;6.85;;;16.90;75.80;;;;;;5115507;28;20032;-72
2022/07/01 07:46:46;;;;;;;12.98;7.07;;;16.90;76.20;;;;;;5115349;28;20087;-72
2022/07/01 07:49:11;;;;;;;11.82;7.05;;;16.90;76.00;;;;;;5115281;28;20043;-72
2022/07/01 07:51:37;;;;;;;12.50;6.80;;;16.90;75.80;;;;;;5115317;28;20036;-72
2022/07/01 07:54:03;;;;;;;10.00;6.45;;;17.00;76.30;;;;;;5115139;28;20032;-72
2022/07/01 07:56:29;;;;;;;13.38;6.63;;;17.00;75.40;;;;;;5097300;28;20070;-72
2022/07/01 07:58:55;;;;;;;10.32;6.00;;;17.10;75.30;;;;;;5115243;28;20036;-72
2022/07/01 08:01:21;;;;;;;10.10;5.53;;;17.10;73.60;;;;;;5115098;28;20028;-72
2022/07/01 08:03:47;;;;;;;11.75;6.60;;;17.20;74.20;;;;;;5115003;28;20043;-72
2022/07/01 08:06:12;;;;;;;11.65;5.97;;;17.30;74.00;;;;;;5114969;28;20024;-72
2022/07/01 08:08:38;;;;;;;11.02;6.15;;;17.30;72.40;;;;;;5114896;28;20040;-72
2022/07/01 08:11:03;;;;;;;12.15;6.55;;;17.20;71.50;;;;;;5114884;28;20020;-72
2022/07/01 08:13:29;;;;;;;13.10;6.50;;;17.30;72.90;;;;;;5114733;28;20115;-72
2022/07/01 08:15:55;;;;;;;11.52;6.28;;;17.30;74.60;;;;;;5096809;28;20036;-72
2022/07/01 08:18:21;;;;;;;11.45;5.90;;;17.40;74.00;;;;;;5114736;28;20035;-72
2022/07/01 08:20:47;;;;;;;11.60;4.95;;;17.40;74.40;;;;;;5114643;28;20024;-72
2022/07/01 08:23:13;;;;;;;11.05;5.13;;;17.50;71.90;;;;;;5114609;28;20034;-72
2022/07/01 08:25:39;;;;;;;8.05;4.88;;;17.60;71.50;;;;;;5114579;28;20020;-72
2022/07/01 08:28:04;;;;;;;9.23;4.70;;;17.60;72.10;;;;;;5096792;28;20059;-72
2022/07/01 08:30:30;;;;;;;9.95;4.40;;;17.70;72.10;;;;;;5114412;28;20119;-72
2022/07/01 08:32:56;;;;;;;6.95;4.22;;;17.70;71.50;;;;;;5114327;28;20036;-72
2022/07/01 08:35:22;;;;;;;7.32;4.25;;;17.80;70.70;;;;;;5114390;28;20395;-72
2022/07/01 08:37:48;;;;;;;8.00;4.13;;;17.80;71.50;;;;;;5114339;28;20038;-72
2022/07/01 08:40:15;;;;;;;8.20;5.15;;;17.80;68.50;;;;;;5114142;28;20044;-72
2022/07/01 08:42:42;;;;;;;8.65;4.22;;;17.90;69.50;;;;;;5113480;28;20035;-72
2022/07/01 08:45:08;;;;;;;7.93;4.20;;;18.00;71.10;;;;;;5114198;28;20024;-72
2022/07/01 08:47:48;;;;;;;6.65;3.90;;;18.10;70.50;;;;;;5114190;28;20048;-73
2022/07/01 08:50:13;;;;;;;9.48;4.20;;;18.20;69.10;;;;;;5114347;28;20028;-72
2022/07/01 08:52:39;;;;;;;6.45;4.10;;;18.20;68.40;;;;;;5114007;28;20039;-72
2022/07/01 08:55:05;;;;;;;6.07;2.92;;;18.20;68.80;;;;;;5114067;28;20028;-73
2022/07/01 08:57:31;;;;;;;7.93;2.58;;;18.30;68.80;;;;;;5113973;28;20032;-72
2022/07/01 09:00:08;;;;;;;3.58;1.58;;;18.30;67.20;;;;;;5114066;28;20024;-72
2022/07/01 09:03:00;;;;;;;4.45;1.90;;;18.30;63.60;;;;;;5113979;28;20023;-72
2022/07/01 09:05:28;;;;;;;4.68;2.10;;;18.40;68.30;;;;;;5113940;28;20084;-72
2022/07/01 09:08:03;;;;;;;2.78;1.52;;;18.50;66.60;;;;;;5113842;28;20043;-72
2022/07/01 09:10:33;;;;;;;4.78;1.77;;;18.50;63.50;;;;;;5113776;28;20057;-72
2022/07/01 09:13:07;;;;;;;2.97;1.60;;;18.50;64.70;;;;;;5113707;28;20050;-72
2022/07/01 09:15:34;;;;;;;5.65;1.70;;;18.60;61.70;;;;;;5113750;28;20040;-72
2022/07/01 09:18:11;;;;;;;3.95;1.65;;;18.50;64.40;;;;;;5113662;28;20031;-72
2022/07/01 09:20:41;;;;;;;4.93;1.90;;;18.60;63.10;;;;;;5113732;28;20030;-72
2022/07/01 09:23:10;;;;;;;3.22;1.50;;;18.80;62.60;;;;;;5113678;28;20024;-72
2022/07/01 09:25:47;;;;;;;2.85;1.55;;;18.80;63.70;;;;;;5113594;28;20024;-71
2022/07/01 09:28:15;;;;;;;2.40;1.10;;;18.90;63.20;;;;;;5113506;28;20106;-72
2022/07/01 09:30:43;;;;;;;2.10;1.00;;;18.90;61.70;;;;;;5113331;28;20048;-72
2022/07/01 09:33:20;;;;;;;1.63;1.20;;;18.80;59.10;;;;;;5113375;28;20050;-72
2022/07/01 09:35:50;;;;;;;2.05;1.10;;;18.90;59.80;;;;;;5113514;28;20031;-72
2022/07/01 09:38:21;;;;;;;2.65;1.25;;;18.90;61.10;;;;;;5113516;28;20087;-72
2022/07/01 09:41:02;;;;;;;1.58;0.90;;;18.90;59.80;;;;;;5113486;28;20027;-72
2022/07/01 09:43:30;;;;;;;1.70;1.00;;;18.90;57.80;;;;;;5113442;28;20040;-72
2022/07/01 09:45:59;;;;;;;1.10;0.82;;;18.90;59.70;;;;;;5113336;28;20021;-72
2022/07/01 09:48:34;;;;;;;1.77;1.00;;;18.90;59.30;;;;;;5113354;28;20016;-72
2022/07/01 09:51:01;;;;;;;1.48;0.80;;;19.00;60.30;;;;;;5113320;28;20036;-72
2022/07/01 09:53:26;;;;;;;1.85;1.20;;;18.90;59.50;;;;;;5115730;28;20039;-72
2022/07/01 09:55:52;;;;;;;2.95;1.00;;;19.00;59.30;;;;;;5117512;28;20031;-72
2022/07/01 09:58:19;;;;;;;2.05;0.93;;;19.10;59.00;;;;;;5117468;28;20028;-72
2022/07/01 10:00:45;;;;;;;1.58;1.10;;;19.00;56.10;;;;;;5117414;28;20016;-72
2022/07/01 10:03:11;;;;;;;1.70;0.88;;;18.90;57.00;;;;;;5117393;28;20038;-71
2022/07/01 10:06:06;;;;;;;2.13;1.02;;;18.90;58.00;;;;;;5117327;28;20024;-72
2022/07/01 10:09:08;;;;;;;1.65;1.05;;;19.00;58.10;;;;;;5107852;28;20059;-72
2022/07/01 10:12:12;;;;;;;4.15;1.42;;;19.00;59.50;;;;;;5099283;28;20127;-72
2022/07/01 10:14:40;;;;;;;3.28;1.60;;;19.00;60.10;;;;;;5117148;28;20036;-72
2022/07/01 10:17:06;;;;;;;3.38;1.25;;;19.10;62.80;;;;;;5117097;28;20107;-72
2022/07/01 10:19:33;;;;;;;3.25;1.30;;;19.20;59.70;;;;;;5117093;28;20095;-72
2022/07/01 10:22:25;;;;;;;3.30;1.38;;;19.30;59.00;;;;;;5117112;28;20028;-71
2022/07/01 10:24:51;;;;;;;3.77;1.20;;;19.50;61.10;;;;;;5117058;28;20020;-71
2022/07/01 10:27:24;;;;;;;2.20;1.60;;;19.70;61.00;;;;;;5116981;28;20016;-72
2022/07/01 10:30:13;;;;;;;3.50;1.20;;;19.80;59.00;;;;;;5116687;28;20028;-72
2022/07/01 10:32:51;;;;;;;3.33;1.52;;;19.90;58.30;;;;;;5116725;28;20062;-72
2022/07/01 10:35:17;;;;;;;4.88;1.65;;;19.90;56.60;;;;;;5116801;28;20020;-72
2022/07/01 10:38:01;;;;;;;3.88;1.50;;;20.00;58.00;;;;;;5116692;28;20027;-72
2022/07/01 10:40:45;;;;;;;6.78;1.35;;;20.00;58.30;;;;;;5116660;28;20103;-72
2022/07/01 10:43:10;;;;;;;4.25;1.10;;;20.00;56.30;;;;;;5116679;28;20024;-73
2022/07/01 10:45:46;;;;;;;2.70;1.40;;;20.00;56.80;;;;;;5116561;28;20044;-72
2022/07/01 10:48:22;;;;;;;2.92;1.80;;;20.10;56.70;;;;;;5116500;28;20035;-72
2022/07/01 10:50:48;;;;;;;3.65;1.50;;;20.20;55.90;;;;;;5116466;28;20070;-72
2022/07/01 10:53:14;;;;;;;4.28;1.60;;;20.20;54.50;;;;;;5116365;28;20073;-71
2022/07/01 10:56:01;;;;;;;4.55;1.35;;;20.20;55.60;;;;;;5116262;28;20080;-72
2022/07/01 10:58:39;;;;;;;4.68;1.60;;;20.20;56.40;;;;;;5116372;28;20027;-71
2022/07/01 11:01:05;;;;;;;3.08;1.10;;;20.20;55.40;;;;;;5116260;28;20046;-71
2022/07/01 11:03:36;;;;;;;1.90;1.00;;;20.20;54.60;;;;;;5115999;28;20028;-72
2022/07/01 11:06:03;;;;;;;4.03;1.35;;;20.20;55.50;;;;;;5115631;28;20024;-72
2022/07/01 11:08:28;;;;;;;2.05;1.30;;;20.30;56.50;;;;;;5116189;28;20039;-71
2022/07/01 11:11:01;;;;;;;4.00;1.33;;;20.40;54.60;;;;;;5116101;28;20031;-71
2022/07/01 11:13:27;;;;;;;3.67;1.10;;;20.50;52.90;;;;;;5116105;28;20046;-71
2022/07/01 11:15:54;;;;;;;1.17;0.90;;;20.40;54.00;;;;;;5115979;28;20028;-71
2022/07/01 11:18:21;;;;;;;2.90;1.05;;;20.50;56.40;;;;;;5115951;28;20024;-71
2022/07/01 11:20:46;;;;;;;2.20;1.10;;;20.60;55.80;;;;;;5115865;28;20027;-72
2022/07/01 11:23:12;;;;;;;2.20;1.20;;;20.60;52.70;;;;;;5115946;28;20028;-72
2022/07/01 11:25:38;;;;;;;1.85;0.98;;;20.50;53.60;;;;;;5115751;28;20028;-71
2022/07/01 11:28:04;;;;;;;3.63;1.05;;;20.50;53.40;;;;;;5097703;28;20126;-71
2022/07/01 11:30:30;;;;;;;2.83;1.25;;;20.60;54.80;;;;;;5115528;28;20074;-71
2022/07/01 11:32:58;;;;;;;2.80;1.17;;;20.70;52.00;;;;;;5115669;28;20035;-71
2022/07/01 11:41:05;;;;;;;2.83;1.08;;;20.80;54.30;;;;;;5115717;28;20383;-72
2022/07/01 11:43:33;;;;;;;3.10;1.13;;;20.80;51.10;;;;;;5115443;28;20020;-71
2022/07/01 11:46:01;;;;;;;4.03;1.10;;;20.80;53.80;;;;;;5115394;28;20028;-71
2022/07/01 11:48:40;;;;;;;4.13;1.05;;;20.80;53.70;;;;;;5097383;28;20058;-72
2022/07/01 11:51:17;;;;;;;2.38;1.10;;;20.90;53.30;;;;;;5115363;28;20032;-72
2022/07/01 11:53:46;;;;;;;3.42;1.17;;;21.10;52.90;;;;;;5115210;28;20032;-72
2022/07/01 11:56:13;;;;;;;2.20;1.00;;;21.30;54.50;;;;;;5115169;28;20013;-72
2022/07/01 11:58:50;;;;;;;1.88;0.85;;;21.30;52.90;;;;;;5115255;28;20028;-72
2022/07/01 12:01:22;;;;;;;4.47;1.00;;;21.50;54.10;;;;;;5115162;28;20083;-72
2022/07/01 12:03:48;;;;;;;2.72;0.98;;;21.50;50.00;;;;;;5115033;28;20024;-71
2022/07/01 12:06:16;;;;;;;3.30;0.98;;;21.40;52.70;;;;;;5115023;28;20035;-71
2022/07/01 12:08:44;;;;;;;0.93;0.85;;;21.50;55.40;;;;;;5096992;28;20020;-71
2022/07/01 12:11:10;;;;;;;3.65;1.02;;;21.60;54.70;;;;;;5114865;28;20036;-71
2022/07/01 12:13:36;;;;;;;2.80;0.80;;;21.50;51.10;;;;;;5114793;28;20036;-71
2022/07/01 12:16:09;;;;;;;1.70;0.80;;;21.60;52.00;;;;;;5114705;28;20024;-71
2022/07/01 12:18:35;;;;;;;2.70;1.10;;;21.60;50.50;;;;;;5114788;28;20035;-71
2022/07/01 12:21:01;;;;;;;2.55;0.90;;;21.50;51.30;;;;;;5114715;28;20030;-71
2022/07/01 12:23:26;;;;;;;2.00;0.73;;;21.40;49.90;;;;;;5114693;28;20028;-71
2022/07/01 12:25:52;;;;;;;3.90;1.00;;;21.40;51.00;;;;;;5114727;28;20038;-71
2022/07/01 12:28:32;;;;;;;3.25;1.00;;;21.50;52.30;;;;;;5114466;28;20032;-71
2022/07/01 12:31:02;;;;;;;2.55;0.82;;;21.60;50.70;;;;;;5114336;28;20063;-71
2022/07/01 12:33:28;;;;;;;5.50;0.98;;;21.60;52.40;;;;;;5114445;28;20020;-71
2022/07/01 12:35:56;;;;;;;2.40;1.08;;;21.40;47.80;;;;;;5114554;28;20511;-71
2022/07/01 12:38:21;;;;;;;3.53;1.10;;;21.20;49.40;;;;;;5114400;28;20079;-71
2022/07/01 12:40:47;;;;;;;4.07;0.80;;;21.20;50.90;;;;;;5114313;28;20028;-71
2022/07/01 12:43:31;;;;;;;2.70;0.82;;;21.30;54.40;;;;;;5114311;28;20046;-71
2022/07/01 12:45:58;;;;;;;2.60;1.27;;;21.50;53.10;;;;;;5114262;28;20078;-72
2022/07/01 12:48:24;;;;;;;1.92;1.00;;;21.50;51.90;;;;;;5114177;28;20028;-71
2022/07/01 12:50:57;;;;;;;2.35;1.02;;;21.60;51.80;;;;;;5114177;28;20031;-72
2022/07/01 12:53:25;;;;;;;3.45;1.00;;;21.70;50.00;;;;;;5114170;28;20115;-71
2022/07/01 12:55:53;;;;;;;1.58;0.70;;;21.60;50.50;;;;;;5114072;28;20390;-71
2022/07/01 12:58:22;;;;;;;1.50;0.70;;;21.50;50.40;;;;;;5114047;28;20020;-72
2022/07/01 13:00:51;;;;;;;1.73;0.70;;;21.40;48.80;;;;;;5113982;28;20403;-72